Time;durP1;ratioP1;P1;durP2;ratioP2;P2;SDS_P1;SDS_P2;PMS_P1;PMS_P2;Temp;Humidity;BMP_temperature;BMP_pressure;BME280_temperature;BME280_humidity;BME280_pressure;Samples;Min_cycle;Max_cycle;Signal;HPM_P1;HPM_P2
2023/10/05 00:02:10;;;;;;;12.48;2.10;;;;;;;;;;5078448;28;20070;-75
2023/10/05 00:04:41;;;;;;;9.43;1.88;;;;;;;;;;5102890;28;20044;-75
2023/10/05 00:07:11;;;;;;;14.20;2.35;;;;;;;;;;5095069;28;20055;-75
2023/10/05 00:09:41;;;;;;;9.75;2.13;;;;;;;;;;5096009;28;20055;-75
2023/10/05 00:12:08;;;;;;;5.80;1.88;;;;;;;;;;5095365;28;20110;-74
2023/10/05 00:14:37;;;;;;;9.18;2.45;;;;;;;;;;5115733;27;20087;-74
2023/10/05 00:17:07;;;;;;;7.05;2.30;;;;;;;;;;5116187;27;20078;-74
2023/10/05 00:19:35;;;;;;;7.57;2.00;;;;;;;;;;5116515;27;20039;-74
2023/10/05 00:22:02;;;;;;;11.45;2.72;;;;;;;;;;5133390;27;20484;-74
2023/10/05 00:26:58;;;;;;;10.23;2.45;;;;;;;;;;5127040;27;20138;-77
2023/10/05 00:29:28;;;;;;;7.57;2.30;;;;;;;;;;5082629;28;20399;-75
2023/10/05 00:31:58;;;;;;;13.85;2.50;;;;;;;;;;5096777;27;20083;-78
2023/10/05 00:34:27;;;;;;;8.98;2.33;;;;;;;;;;5100051;27;20158;-74
2023/10/05 00:36:57;;;;;;;11.90;2.90;;;;;;;;;;5115624;27;20129;-76
2023/10/05 00:39:23;;;;;;;15.65;3.42;;;;;;;;;;5115893;27;20055;-73
2023/10/05 00:44:33;;;;;;;13.52;2.28;;;;;;;;;;5096603;28;20051;-75
2023/10/05 00:47:00;;;;;;;9.73;2.38;;;;;;;;;;5078994;28;20184;-75
2023/10/05 00:49:29;;;;;;;11.63;2.35;;;;;;;;;;5095802;28;20060;-74
2023/10/05 00:52:15;;;;;;;13.95;3.05;;;;;;;;;;5095726;28;20044;-79
2023/10/05 00:54:44;;;;;;;11.27;2.63;;;;;;;;;;5097505;27;20043;-74
2023/10/05 00:57:14;;;;;;;14.65;2.70;;;;;;;;;;5098915;27;20223;-74
2023/10/05 00:59:40;;;;;;;12.23;2.70;;;;;;;;;;5116489;27;20043;-74
2023/10/05 01:02:14;;;;;;;12.13;2.22;;;;;;;;;;5116015;27;20050;-75
2023/10/05 01:04:57;;;;;;;8.23;2.50;;;;;;;;;;5083328;27;20082;-74
2023/10/05 01:14:53;;;;;;;10.55;2.60;;;;;;;;;;5095586;28;20055;-75
2023/10/05 01:17:20;;;;;;;11.90;2.38;;;;;;;;;;5082908;28;20048;-74
2023/10/05 01:20:07;;;;;;;9.27;2.45;;;;;;;;;;5078745;28;20043;-74
2023/10/05 01:22:34;;;;;;;12.48;2.85;;;;;;;;;;5099075;27;20447;-74
2023/10/05 01:25:02;;;;;;;14.77;2.50;;;;;;;;;;5114228;27;20084;-76
2023/10/05 01:27:32;;;;;;;15.70;2.92;;;;;;;;;;5115356;27;20046;-74
2023/10/05 01:29:58;;;;;;;10.88;2.72;;;;;;;;;;5099683;28;20071;-78
2023/10/05 01:32:25;;;;;;;11.27;2.30;;;;;;;;;;5095127;28;20047;-74
2023/10/05 01:34:51;;;;;;;9.27;2.65;;;;;;;;;;5095086;28;20040;-74
2023/10/05 01:37:30;;;;;;;;;;;;;;;;;;5078649;28;20101;-74
2023/10/05 01:39:59;;;;;;;9.25;2.40;;;;;;;;;;5090127;28;19929;-74
2023/10/05 01:42:25;;;;;;;7.72;2.75;;;;;;;;;;5111085;28;20039;-74
2023/10/05 01:44:51;;;;;;;;;;;;;;;;;;5095211;28;20488;-74
2023/10/05 01:47:18;;;;;;;10.10;2.40;;;;;;;;;;5094069;28;19927;-75
2023/10/05 01:49:45;;;;;;;11.35;2.42;;;;;;;;;;5077457;28;20130;-74
2023/10/05 01:52:11;;;;;;;10.82;2.40;;;;;;;;;;5093703;28;20051;-75
2023/10/05 01:54:38;;;;;;;14.38;2.72;;;;;;;;;;5092691;28;20062;-74
2023/10/05 01:57:12;;;;;;;;;;;;;;;;;;5095743;28;20040;-74
2023/10/05 01:59:39;;;;;;;11.45;2.65;;;;;;;;;;5077306;28;19923;-74
2023/10/05 02:02:10;;;;;;;15.93;2.40;;;;;;;;;;5102665;28;20098;-74
2023/10/05 02:04:44;;;;;;;12.98;2.90;;;;;;;;;;5094311;28;20051;-75
2023/10/05 02:07:11;;;;;;;9.63;2.58;;;;;;;;;;5096079;27;20530;-74
2023/10/05 02:09:38;;;;;;;12.32;2.58;;;;;;;;;;5096785;27;20047;-76
2023/10/05 02:12:06;;;;;;;8.63;2.35;;;;;;;;;;5096330;27;20055;-77
2023/10/05 02:14:41;;;;;;;9.63;2.50;;;;;;;;;;5097705;27;20051;-74
2023/10/05 02:17:08;;;;;;;8.07;2.40;;;;;;;;;;5096800;27;20138;-75
2023/10/05 02:19:37;;;;;;;10.80;2.85;;;;;;;;;;5108879;28;20508;-74
2023/10/05 02:22:04;;;;;;;13.65;2.67;;;;;;;;;;5069539;28;20120;-79
2023/10/05 02:24:30;;;;;;;12.35;3.00;;;;;;;;;;5110606;28;20047;-75
2023/10/05 02:29:26;;;;;;;12.13;2.95;;;;;;;;;;5093692;28;20055;-75
2023/10/05 02:34:33;;;;;;;;;;;;;;;;;;5094030;28;20089;-74
2023/10/05 02:37:00;;;;;;;13.90;2.80;;;;;;;;;;5107337;28;19920;-75
2023/10/05 02:39:32;;;;;;;13.35;3.40;;;;;;;;;;5110899;28;20246;-76
2023/10/05 02:41:58;;;;;;;9.95;2.70;;;;;;;;;;5093090;28;20059;-74
2023/10/05 02:44:30;;;;;;;12.27;2.72;;;;;;;;;;5096344;27;20096;-74
2023/10/05 02:46:59;;;;;;;11.25;2.72;;;;;;;;;;5098498;28;20499;-74
2023/10/05 02:49:25;;;;;;;8.30;2.55;;;;;;;;;;5113380;27;20456;-75
2023/10/05 02:51:55;;;;;;;11.50;2.63;;;;;;;;;;5093347;28;20079;-74
2023/10/05 02:54:24;;;;;;;12.77;3.13;;;;;;;;;;5075693;28;20508;-74
2023/10/05 02:56:54;;;;;;;13.35;2.80;;;;;;;;;;5092800;28;20043;-74
2023/10/05 02:59:24;;;;;;;10.35;3.00;;;;;;;;;;5093242;28;20126;-75
2023/10/05 03:01:53;;;;;;;11.73;3.13;;;;;;;;;;5093990;28;20040;-74
2023/10/05 03:04:21;;;;;;;10.93;2.85;;;;;;;;;;5102415;28;20138;-73
2023/10/05 03:06:49;;;;;;;13.90;2.95;;;;;;;;;;5080405;28;20047;-74
2023/10/05 03:09:17;;;;;;;10.35;3.53;;;;;;;;;;5086806;28;20043;-74
2023/10/05 03:11:47;;;;;;;11.18;3.10;;;;;;;;;;5092993;28;20477;-75
2023/10/05 03:14:16;;;;;;;13.93;3.30;;;;;;;;;;5093261;28;20083;-74
2023/10/05 03:16:48;;;;;;;10.07;3.17;;;;;;;;;;5077171;28;20047;-74
2023/10/05 03:19:18;;;;;;;12.50;3.00;;;;;;;;;;5077394;28;20077;-74
2023/10/05 03:21:45;;;;;;;9.07;3.00;;;;;;;;;;5093561;28;20091;-75
2023/10/05 03:24:14;;;;;;;9.25;2.97;;;;;;;;;;5092434;28;20198;-78
2023/10/05 03:26:43;;;;;;;9.98;2.67;;;;;;;;;;5089600;28;20063;-75
2023/10/05 03:29:14;;;;;;;14.82;3.15;;;;;;;;;;5093369;28;20130;-76
2023/10/05 03:31:52;;;;;;;11.50;2.85;;;;;;;;;;5093433;28;20051;-74
2023/10/05 03:34:19;;;;;;;13.15;2.95;;;;;;;;;;5092801;28;20047;-74
2023/10/05 03:36:48;;;;;;;13.75;3.15;;;;;;;;;;5109422;28;20389;-76
2023/10/05 03:39:15;;;;;;;9.60;3.15;;;;;;;;;;5129918;28;20099;-74
2023/10/05 03:41:41;;;;;;;13.50;2.60;;;;;;;;;;5129820;28;20078;-74
2023/10/05 03:44:07;;;;;;;12.90;3.03;;;;;;;;;;5114329;28;20047;-74
2023/10/05 03:46:37;;;;;;;12.98;2.97;;;;;;;;;;5130446;28;20076;-74
2023/10/05 03:49:06;;;;;;;10.88;3.25;;;;;;;;;;5115020;28;20389;-74
2023/10/05 03:51:32;;;;;;;14.55;2.63;;;;;;;;;;5080321;28;20652;-74
2023/10/05 03:53:59;;;;;;;11.55;3.30;;;;;;;;;;5075436;28;20086;-74
2023/10/05 03:56:27;;;;;;;10.13;2.60;;;;;;;;;;5092631;28;20066;-74
2023/10/05 03:58:53;;;;;;;14.43;3.10;;;;;;;;;;5113349;28;20055;-74
2023/10/05 04:01:19;;;;;;;;;;;;;;;;;;5096801;28;20047;-74
2023/10/05 04:03:49;;;;;;;15.20;3.08;;;;;;;;;;5113647;28;20379;-74
2023/10/05 04:06:23;;;;;;;12.07;2.85;;;;;;;;;;5102909;28;20051;-78
2023/10/05 04:09:00;;;;;;;10.85;3.17;;;;;;;;;;5076844;28;20050;-74
2023/10/05 04:11:29;;;;;;;12.48;3.05;;;;;;;;;;5093217;27;20047;-74
2023/10/05 04:13:55;;;;;;;14.15;3.38;;;;;;;;;;5096251;28;20738;-74
2023/10/05 04:16:33;;;;;;;15.68;2.90;;;;;;;;;;5103901;28;20377;-74
2023/10/05 04:18:59;;;;;;;11.43;3.15;;;;;;;;;;5096567;28;20051;-74
2023/10/05 04:21:25;;;;;;;13.60;3.67;;;;;;;;;;5096088;28;20072;-75
2023/10/05 04:23:56;;;;;;;13.00;3.28;;;;;;;;;;5096055;28;20043;-74
2023/10/05 04:26:26;;;;;;;18.60;3.67;;;;;;;;;;5095166;28;20519;-74
2023/10/05 04:28:52;;;;;;;16.10;3.00;;;;;;;;;;5099084;27;20391;-74
2023/10/05 04:31:25;;;;;;;16.17;3.83;;;;;;;;;;5116412;27;20047;-77
2023/10/05 04:33:55;;;;;;;12.55;2.78;;;;;;;;;;5109087;28;20472;-76
2023/10/05 04:36:25;;;;;;;14.00;2.80;;;;;;;;;;5095729;28;20052;-74
2023/10/05 04:38:55;;;;;;;7.97;3.08;;;;;;;;;;5095925;28;20036;-74
2023/10/05 04:41:27;;;;;;;16.10;3.22;;;;;;;;;;5114999;27;20066;-74
2023/10/05 04:43:54;;;;;;;15.68;3.20;;;;;;;;;;5098995;27;20133;-74
2023/10/05 04:46:20;;;;;;;9.90;2.67;;;;;;;;;;5116319;27;20042;-77
2023/10/05 04:48:55;;;;;;;12.63;2.83;;;;;;;;;;5078242;28;20059;-74
2023/10/05 04:51:30;;;;;;;13.75;2.97;;;;;;;;;;5111338;28;20054;-75
2023/10/05 04:53:59;;;;;;;17.23;3.10;;;;;;;;;;5102891;28;20048;-75
2023/10/05 04:56:53;;;;;;;9.30;3.42;;;;;;;;;;5091027;28;20173;-75
2023/10/05 04:59:25;;;;;;;13.80;3.28;;;;;;;;;;5084706;28;20058;-79
2023/10/05 05:07:09;;;;;;;20.77;3.45;;;;;;;;;;5098292;28;20508;-72
2023/10/05 05:09:39;;;;;;;12.70;2.95;;;;;;;;;;5125115;27;20083;-74
2023/10/05 05:12:09;;;;;;;13.48;2.90;;;;;;;;;;5126082;27;20051;-75
2023/10/05 05:14:36;;;;;;;14.85;3.03;;;;;;;;;;5127659;27;20052;-75
2023/10/05 05:17:05;;;;;;;14.85;3.40;;;;;;;;;;5113078;28;20039;-75
2023/10/05 05:19:32;;;;;;;11.27;3.00;;;;;;;;;;5112211;28;20415;-75
2023/10/05 05:21:59;;;;;;;12.02;3.05;;;;;;;;;;5096355;28;20050;-75
2023/10/05 05:24:29;;;;;;;17.10;2.97;;;;;;;;;;5077531;28;20508;-76
2023/10/05 05:27:39;;;;;;;11.45;2.75;;;;;;;;;;5091157;28;20084;-75
2023/10/05 05:29:46;;;;;;;15.20;2.95;;;;;;;;;;5083229;28;20056;-76
2023/10/05 05:32:13;;;;;;;13.75;2.95;;;;;;;;;;5092327;28;20052;-75
2023/10/05 05:34:42;;;;;;;14.80;3.10;;;;;;;;;;5091441;28;20052;-75
2023/10/05 05:37:13;;;;;;;13.98;3.40;;;;;;;;;;5086447;28;20486;-76
2023/10/05 05:39:40;;;;;;;15.27;3.30;;;;;;;;;;5090414;28;20048;-76
2023/10/05 05:42:13;;;;;;;9.68;2.80;;;;;;;;;;5091517;28;20136;-76
2023/10/05 05:44:39;;;;;;;16.80;2.90;;;;;;;;;;5091326;28;20052;-75
2023/10/05 05:47:10;;;;;;;16.00;3.30;;;;;;;;;;5109226;28;20548;-77
2023/10/05 05:49:45;;;;;;;10.00;3.00;;;;;;;;;;5094186;28;20093;-76
2023/10/05 05:52:12;;;;;;;13.68;3.17;;;;;;;;;;5112345;28;20089;-75
2023/10/05 05:54:39;;;;;;;19.40;3.38;;;;;;;;;;5089812;28;20098;-77
2023/10/05 05:57:09;;;;;;;14.13;3.08;;;;;;;;;;5076220;28;20055;-75
2023/10/05 05:59:36;;;;;;;11.57;3.35;;;;;;;;;;5105749;28;20130;-73
2023/10/05 06:02:08;;;;;;;12.65;3.10;;;;;;;;;;5094827;28;20047;-73
2023/10/05 06:04:41;;;;;;;8.43;2.90;;;;;;;;;;5097693;28;20398;-74
2023/10/05 06:07:13;;;;;;;15.63;3.35;;;;;;;;;;5125432;27;20048;-73
2023/10/05 06:09:45;;;;;;;12.38;3.20;;;;;;;;;;5108230;27;20087;-74
2023/10/05 06:12:16;;;;;;;13.65;3.28;;;;;;;;;;5092073;28;20056;-72
2023/10/05 06:14:42;;;;;;;15.98;2.92;;;;;;;;;;5107843;28;20052;-73
2023/10/05 06:17:09;;;;;;;14.15;3.03;;;;;;;;;;5108837;28;20052;-73
2023/10/05 06:19:36;;;;;;;20.80;3.63;;;;;;;;;;5097671;28;20052;-75
2023/10/05 06:22:04;;;;;;;11.00;2.88;;;;;;;;;;5098883;28;20039;-81
2023/10/05 06:24:30;;;;;;;12.70;2.97;;;;;;;;;;5109906;28;20111;-81
2023/10/05 06:26:56;;;;;;;14.35;3.65;;;;;;;;;;5092529;28;20346;-74
2023/10/05 06:29:22;;;;;;;13.20;2.90;;;;;;;;;;5112986;27;20151;-75
2023/10/05 06:31:48;;;;;;;;;;;;;;;;;;5112224;27;20048;-75
2023/10/05 06:34:14;;;;;;;13.40;2.85;;;;;;;;;;5116182;27;19923;-76
2023/10/05 06:36:41;;;;;;;;;;;;;;;;;;5097906;28;20051;-76
2023/10/05 06:39:09;;;;;;;13.35;3.00;;;;;;;;;;5111376;27;19919;-76
2023/10/05 06:41:36;;;;;;;16.33;3.10;;;;;;;;;;5095573;28;20055;-77
2023/10/05 06:44:03;;;;;;;12.10;3.50;;;;;;;;;;5090335;28;20082;-77
2023/10/05 06:46:29;;;;;;;16.70;3.90;;;;;;;;;;5103135;28;20055;-73
2023/10/05 06:48:55;;;;;;;14.70;4.10;;;;;;;;;;5109395;28;20052;-74
2023/10/05 06:51:21;;;;;;;;;;;;;;;;;;5117238;27;20055;-73
2023/10/05 06:53:47;;;;;;;13.85;4.63;;;;;;;;;;5099774;28;19942;-74
2023/10/05 06:56:13;;;;;;;;;;;;;;;;;;5129496;27;20048;-74
2023/10/05 06:58:41;;;;;;;15.77;6.30;;;;;;;;;;5118136;28;19926;-76
2023/10/05 07:01:07;;;;;;;15.68;6.13;;;;;;;;;;5093090;28;20048;-75
2023/10/05 07:03:33;;;;;;;21.33;5.88;;;;;;;;;;5107828;28;20044;-78
2023/10/05 07:05:59;;;;;;;;;;;;;;;;;;5073665;28;20040;-76
2023/10/05 07:08:25;;;;;;;16.38;5.07;;;;;;;;;;5103889;28;19972;-75
2023/10/05 07:10:51;;;;;;;;;;;;;;;;;;5110066;28;20123;-74
2023/10/05 07:13:21;;;;;;;17.45;5.05;;;;;;;;;;5110089;28;20010;-75
2023/10/05 07:15:47;;;;;;;16.45;5.60;;;;;;;;;;5093292;28;20449;-74
2023/10/05 07:18:13;;;;;;;;;;;;;;;;;;5110899;28;20131;-75
2023/10/05 07:20:41;;;;;;;19.13;6.22;;;;;;;;;;5092846;28;19959;-74
2023/10/05 07:23:07;;;;;;;18.02;6.60;;;;;;;;;;5077185;28;20089;-74
2023/10/05 07:25:34;;;;;;;20.80;8.00;;;;;;;;;;5108111;28;20043;-75
2023/10/05 07:28:00;;;;;;;19.58;8.23;;;;;;;;;;5110087;28;20079;-74
2023/10/05 07:30:28;;;;;;;17.50;6.90;;;;;;;;;;5110823;28;20093;-76
2023/10/05 07:32:54;;;;;;;17.95;5.65;;;;;;;;;;5110565;28;20047;-74
2023/10/05 07:35:21;;;;;;;;;;;;;;;;;;5093613;28;20074;-75
2023/10/05 07:37:47;;;;;;;11.18;3.75;;;;;;;;;;5093369;28;19926;-76
2023/10/05 07:40:14;;;;;;;12.77;3.78;;;;;;;;;;5109763;28;20130;-74
2023/10/05 07:42:41;;;;;;;16.65;3.58;;;;;;;;;;5092938;28;20044;-75
2023/10/05 07:45:07;;;;;;;10.73;3.10;;;;;;;;;;5110031;28;20039;-76
2023/10/05 07:47:34;;;;;;;16.25;3.95;;;;;;;;;;5105235;28;20047;-75
2023/10/05 07:50:00;;;;;;;13.25;3.53;;;;;;;;;;5112406;27;20051;-74
2023/10/05 07:52:26;;;;;;;;;;;;;;;;;;5118469;27;20135;-75
2023/10/05 07:54:52;;;;;;;17.38;3.28;;;;;;;;;;5098696;27;19968;-75
2023/10/05 07:57:18;;;;;;;16.77;3.70;;;;;;;;;;5112806;27;20054;-75
2023/10/05 07:59:44;;;;;;;;;;;;;;;;;;5082011;27;20043;-74
2023/10/05 08:02:10;;;;;;;14.35;3.10;;;;;;;;;;5117640;27;20295;-75
2023/10/05 08:04:37;;;;;;;12.55;3.00;;;;;;;;;;5100313;27;20047;-77
2023/10/05 08:07:03;;;;;;;12.32;3.55;;;;;;;;;;5117247;27;20062;-74
2023/10/05 08:09:30;;;;;;;10.52;3.30;;;;;;;;;;5113520;27;20047;-76
2023/10/05 08:11:59;;;;;;;15.32;3.70;;;;;;;;;;5115904;27;20843;-75
2023/10/05 08:14:25;;;;;;;16.77;3.45;;;;;;;;;;5117153;27;20042;-75
2023/10/05 08:16:52;;;;;;;17.30;3.88;;;;;;;;;;5113731;28;20051;-75
2023/10/05 08:19:36;;;;;;;11.95;3.33;;;;;;;;;;5112160;27;20063;-75
2023/10/05 08:22:02;;;;;;;14.23;3.28;;;;;;;;;;5099908;27;20047;-76
2023/10/05 08:24:28;;;;;;;;;;;;;;;;;;5100304;27;20074;-74
2023/10/05 08:26:57;;;;;;;13.82;3.97;;;;;;;;;;5098978;27;20375;-75
2023/10/05 08:29:23;;;;;;;;;;;;;;;;;;5117212;27;20122;-75
2023/10/05 08:31:53;;;;;;;10.77;3.03;;;;;;;;;;5116716;27;19919;-75
2023/10/05 08:34:22;;;;;;;12.85;3.42;;;;;;;;;;5100169;27;20047;-75
2023/10/05 08:36:55;;;;;;;14.43;3.42;;;;;;;;;;5114172;27;20043;-75
2023/10/05 08:39:25;;;;;;;16.20;3.53;;;;;;;;;;5099311;27;20043;-75
2023/10/05 08:41:54;;;;;;;13.05;3.08;;;;;;;;;;5112222;28;20075;-76
2023/10/05 08:44:27;;;;;;;9.38;3.15;;;;;;;;;;5112486;27;20396;-74
2023/10/05 08:46:56;;;;;;;13.38;3.17;;;;;;;;;;5116612;27;20050;-75
2023/10/05 08:49:23;;;;;;;13.55;3.92;;;;;;;;;;5115779;27;20090;-74
2023/10/05 08:51:50;;;;;;;18.63;3.42;;;;;;;;;;5099122;27;20082;-74
2023/10/05 08:54:21;;;;;;;12.82;3.58;;;;;;;;;;5098941;27;20062;-75
2023/10/05 08:56:48;;;;;;;16.33;3.65;;;;;;;;;;5093632;28;20051;-75
2023/10/05 08:59:19;;;;;;;15.38;3.15;;;;;;;;;;5110643;28;20055;-75
2023/10/05 09:01:46;;;;;;;13.90;3.10;;;;;;;;;;5107861;27;20112;-79
2023/10/05 09:06:47;;;;;;;15.35;3.47;;;;;;;;;;5121151;27;20594;-75
2023/10/05 09:09:14;;;;;;;16.42;3.35;;;;;;;;;;5095487;28;20518;-76
2023/10/05 09:11:40;;;;;;;14.02;3.10;;;;;;;;;;5095427;28;20545;-75
2023/10/05 09:14:23;;;;;;;;;;;;;;;;;;5079462;28;20115;-76
2023/10/05 09:16:55;;;;;;;12.57;3.15;;;;;;;;;;5088221;28;19981;-74
2023/10/05 09:19:26;;;;;;;11.43;3.05;;;;;;;;;;5096253;28;20096;-75
2023/10/05 09:24:25;;;;;;;14.82;3.22;;;;;;;;;;5112609;28;20196;-75
2023/10/05 09:26:51;;;;;;;13.88;3.75;;;;;;;;;;5078021;28;20044;-75
2023/10/05 09:29:17;;;;;;;;;;;;;;;;;;5116777;27;20043;-75
2023/10/05 09:31:43;;;;;;;16.45;3.08;;;;;;;;;;5116478;27;20375;-75
2023/10/05 09:34:14;;;;;;;;;;;;;;;;;;5098902;27;20104;-75
2023/10/05 09:36:41;;;;;;;12.68;3.10;;;;;;;;;;5116136;27;19919;-75
2023/10/05 09:39:08;;;;;;;18.38;3.28;;;;;;;;;;5097688;27;20251;-76
2023/10/05 09:41:35;;;;;;;14.45;3.75;;;;;;;;;;5083227;28;20051;-75
2023/10/05 09:44:04;;;;;;;15.27;3.35;;;;;;;;;;5094652;28;20492;-74
2023/10/05 09:46:33;;;;;;;15.88;3.83;;;;;;;;;;5095726;28;20374;-75
2023/10/05 09:49:01;;;;;;;19.92;3.78;;;;;;;;;;5077566;28;20063;-76
2023/10/05 09:51:27;;;;;;;15.07;3.40;;;;;;;;;;5106272;27;20087;-75
2023/10/05 09:53:54;;;;;;;;;;;;;;;;;;5098290;27;20051;-75
2023/10/05 09:56:21;;;;;;;;;;;;;;;;;;5098880;27;19925;-75
2023/10/05 09:58:47;;;;;;;15.43;3.80;;;;;;;;;;5098535;27;19919;-75
2023/10/05 10:01:13;;;;;;;;;;;;;;;;;;5081967;27;20081;-75
2023/10/05 10:03:45;;;;;;;16.50;3.30;;;;;;;;;;5098486;27;19939;-75
2023/10/05 10:06:12;;;;;;;16.05;3.47;;;;;;;;;;5080544;27;20050;-75
2023/10/05 10:08:51;;;;;;;18.13;4.05;;;;;;;;;;5094619;28;20091;-75
2023/10/05 10:11:18;;;;;;;12.43;3.40;;;;;;;;;;5094023;28;20507;-75
2023/10/05 10:13:52;;;;;;;14.55;3.35;;;;;;;;;;5092398;27;20508;-75
2023/10/05 10:16:22;;;;;;;15.45;3.35;;;;;;;;;;5115014;27;20047;-75
2023/10/05 10:19:03;;;;;;;10.88;2.60;;;;;;;;;;5115566;27;20103;-75
2023/10/05 10:21:33;;;;;;;11.63;3.00;;;;;;;;;;5098405;27;20059;-74
2023/10/05 10:24:07;;;;;;;14.13;3.05;;;;;;;;;;5095218;27;20515;-75
2023/10/05 10:26:42;;;;;;;16.98;3.13;;;;;;;;;;5113221;28;20036;-76
2023/10/05 10:29:11;;;;;;;13.18;3.90;;;;;;;;;;5094203;28;20047;-75
2023/10/05 10:31:47;;;;;;;11.82;2.80;;;;;;;;;;5078342;28;20051;-75
2023/10/05 10:34:20;;;;;;;16.02;3.10;;;;;;;;;;5078809;28;20082;-74
2023/10/05 10:36:47;;;;;;;14.98;3.03;;;;;;;;;;5077753;28;20472;-75
2023/10/05 10:39:33;;;;;;;10.27;3.10;;;;;;;;;;5112702;27;20062;-74
2023/10/05 10:42:12;;;;;;;13.73;2.97;;;;;;;;;;5113678;27;20101;-74
2023/10/05 10:47:19;;;;;;;14.48;3.30;;;;;;;;;;5079188;28;20083;-75
2023/10/05 10:50:04;;;;;;;13.52;3.03;;;;;;;;;;5096029;28;20059;-74
2023/10/05 10:52:31;;;;;;;13.48;3.08;;;;;;;;;;5077628;28;20048;-75
2023/10/05 10:55:00;;;;;;;13.60;3.42;;;;;;;;;;5080533;28;20079;-75
2023/10/05 10:57:26;;;;;;;15.20;3.45;;;;;;;;;;5111036;28;20427;-75
2023/10/05 11:00:38;;;;;;;;;;;;;;;;;;5095074;28;20064;-75
2023/10/05 11:02:41;;;;;;;14.38;3.40;;;;;;;;;;5111136;28;19919;-75
2023/10/05 11:05:14;;;;;;;12.30;3.17;;;;;;;;;;5110632;28;20077;-76
2023/10/05 11:07:41;;;;;;;15.38;3.92;;;;;;;;;;5114138;28;20122;-75
2023/10/05 11:10:18;;;;;;;11.75;3.13;;;;;;;;;;5110462;28;20042;-76
2023/10/05 11:12:53;;;;;;;13.50;2.97;;;;;;;;;;5113861;28;20054;-75
2023/10/05 11:15:19;;;;;;;13.10;3.45;;;;;;;;;;5096907;28;20133;-75
2023/10/05 11:17:46;;;;;;;12.70;3.70;;;;;;;;;;5097506;28;20476;-75
2023/10/05 11:20:33;;;;;;;15.65;3.40;;;;;;;;;;5114204;27;20118;-75
2023/10/05 11:23:04;;;;;;;10.53;2.97;;;;;;;;;;5117821;27;20047;-78
2023/10/05 11:25:35;;;;;;;12.60;3.08;;;;;;;;;;5117463;27;20285;-75
2023/10/05 11:28:07;;;;;;;13.05;3.30;;;;;;;;;;5114689;27;20050;-75
2023/10/05 11:30:45;;;;;;;12.75;3.03;;;;;;;;;;5098158;28;20047;-76
2023/10/05 11:33:15;;;;;;;13.65;2.90;;;;;;;;;;5114518;28;20062;-76
2023/10/05 11:35:48;;;;;;;11.30;3.42;;;;;;;;;;5101519;27;20047;-75
2023/10/05 11:38:15;;;;;;;13.57;3.05;;;;;;;;;;5101682;28;20062;-76
2023/10/05 11:40:49;;;;;;;15.60;3.20;;;;;;;;;;5098490;27;20047;-75
2023/10/05 11:43:16;;;;;;;14.10;3.20;;;;;;;;;;5104294;28;20100;-75
2023/10/05 11:45:58;;;;;;;10.93;3.35;;;;;;;;;;5081070;28;20043;-75
2023/10/05 11:48:40;;;;;;;16.25;3.50;;;;;;;;;;5079985;28;20059;-75
2023/10/05 11:51:11;;;;;;;12.73;3.28;;;;;;;;;;5097307;28;20048;-75
2023/10/05 11:53:37;;;;;;;16.35;3.40;;;;;;;;;;5080269;28;20504;-75
2023/10/05 11:56:06;;;;;;;15.60;4.07;;;;;;;;;;5079265;28;20047;-79
2023/10/05 11:58:36;;;;;;;13.85;3.28;;;;;;;;;;5112531;28;20101;-75
2023/10/05 12:01:03;;;;;;;15.95;3.53;;;;;;;;;;5117861;27;20043;-78
2023/10/05 12:03:32;;;;;;;12.88;3.70;;;;;;;;;;5101037;27;20396;-75
2023/10/05 12:06:02;;;;;;;16.50;3.65;;;;;;;;;;5100883;27;20073;-75
2023/10/05 12:08:34;;;;;;;16.50;3.70;;;;;;;;;;5100278;27;20058;-76
2023/10/05 12:11:00;;;;;;;7.28;2.55;;;;;;;;;;5100336;27;20047;-76
2023/10/05 12:13:30;;;;;;;15.18;3.10;;;;;;;;;;5096467;28;20134;-76
2023/10/05 12:15:58;;;;;;;9.05;2.33;;;;;;;;;;5097425;28;20043;-76
2023/10/05 12:18:24;;;;;;;11.32;2.50;;;;;;;;;;5102554;27;20594;-77
2023/10/05 12:20:50;;;;;;;13.50;3.10;;;;;;;;;;5117646;27;20051;-76
2023/10/05 12:23:17;;;;;;;;;;;;;;;;;;5097069;28;20498;-76
2023/10/05 12:25:44;;;;;;;9.88;2.90;;;;;;;;;;5079337;28;19978;-76
2023/10/05 12:28:11;;;;;;;12.38;4.05;;;;;;;;;;5079499;28;20043;-76
2023/10/05 12:30:39;;;;;;;10.80;3.00;;;;;;;;;;5116884;27;20050;-76
2023/10/05 12:33:08;;;;;;;11.35;3.53;;;;;;;;;;5099404;27;20051;-79
2023/10/05 12:35:36;;;;;;;13.85;3.20;;;;;;;;;;5100283;27;20047;-77
2023/10/05 12:38:06;;;;;;;11.25;3.10;;;;;;;;;;5117416;27;20058;-76
2023/10/05 12:40:33;;;;;;;11.23;3.33;;;;;;;;;;5110395;28;20047;-76
2023/10/05 12:43:00;;;;;;;10.88;2.78;;;;;;;;;;5096358;28;20046;-76
2023/10/05 12:45:26;;;;;;;13.98;3.25;;;;;;;;;;5096484;28;20644;-76
2023/10/05 12:47:56;;;;;;;12.60;3.35;;;;;;;;;;5096644;28;20048;-76
2023/10/05 12:50:24;;;;;;;9.98;2.63;;;;;;;;;;5096029;28;20397;-76
2023/10/05 12:52:51;;;;;;;11.93;2.63;;;;;;;;;;5079951;28;20058;-76
2023/10/05 12:55:22;;;;;;;11.77;2.90;;;;;;;;;;5111870;27;20039;-76
2023/10/05 12:57:52;;;;;;;8.57;2.47;;;;;;;;;;5083089;27;20050;-76
2023/10/05 13:00:25;;;;;;;13.25;2.70;;;;;;;;;;5099525;27;20396;-76
2023/10/05 13:02:55;;;;;;;13.48;2.95;;;;;;;;;;5100146;27;20047;-76
2023/10/05 13:05:24;;;;;;;8.90;2.53;;;;;;;;;;5111064;28;20048;-76
2023/10/05 13:07:50;;;;;;;14.13;2.90;;;;;;;;;;5096021;28;20047;-76
2023/10/05 13:10:32;;;;;;;10.13;2.83;;;;;;;;;;5077910;28;20047;-76
2023/10/05 13:13:01;;;;;;;10.60;2.92;;;;;;;;;;5095814;28;20087;-76
2023/10/05 13:15:32;;;;;;;13.73;3.65;;;;;;;;;;5062385;28;20044;-76
2023/10/05 13:18:15;;;;;;;15.85;3.42;;;;;;;;;;5079431;28;20082;-76
2023/10/05 13:20:42;;;;;;;15.20;2.92;;;;;;;;;;5079021;28;20058;-76
2023/10/05 13:23:11;;;;;;;9.20;2.92;;;;;;;;;;5079298;27;20043;-77
2023/10/05 13:25:39;;;;;;;8.70;2.65;;;;;;;;;;5094075;28;20399;-73
2023/10/05 13:28:06;;;;;;;13.75;3.00;;;;;;;;;;5095108;28;20087;-72
2023/10/05 13:30:40;;;;;;;10.73;2.95;;;;;;;;;;5095742;28;20051;-72
2023/10/05 13:33:15;;;;;;;15.27;2.83;;;;;;;;;;5095772;28;20047;-74
2023/10/05 13:35:42;;;;;;;14.82;2.80;;;;;;;;;;5114547;27;20083;-75
2023/10/05 13:38:17;;;;;;;15.45;3.10;;;;;;;;;;5095864;28;20075;-73
2023/10/05 13:40:57;;;;;;;13.57;3.15;;;;;;;;;;5108676;27;20122;-73
2023/10/05 13:43:25;;;;;;;9.05;3.00;;;;;;;;;;5115258;27;20047;-72
2023/10/05 13:45:51;;;;;;;9.60;2.55;;;;;;;;;;5116100;27;20047;-73
2023/10/05 13:48:18;;;;;;;15.15;2.70;;;;;;;;;;5098353;27;20096;-75
2023/10/05 13:50:47;;;;;;;10.40;2.63;;;;;;;;;;5112120;27;20135;-71
2023/10/05 13:53:15;;;;;;;13.88;3.20;;;;;;;;;;5107806;27;20046;-78
2023/10/05 13:55:41;;;;;;;9.63;2.65;;;;;;;;;;5128930;27;20039;-71
2023/10/05 13:58:10;;;;;;;12.68;2.70;;;;;;;;;;5111593;28;20096;-71
2023/10/05 14:00:36;;;;;;;17.15;3.17;;;;;;;;;;5094773;28;20081;-72
2023/10/05 14:03:03;;;;;;;12.13;2.80;;;;;;;;;;5131296;27;20043;-71
2023/10/05 14:05:29;;;;;;;13.70;2.70;;;;;;;;;;5112795;27;20039;-71
2023/10/05 14:07:58;;;;;;;8.20;2.30;;;;;;;;;;5080780;28;20109;-72
2023/10/05 14:10:25;;;;;;;10.05;2.85;;;;;;;;;;5093526;28;20184;-71
2023/10/05 14:12:52;;;;;;;11.18;2.20;;;;;;;;;;5102674;28;20507;-71
2023/10/05 14:15:22;;;;;;;15.00;3.20;;;;;;;;;;5124405;27;20128;-71
2023/10/05 14:17:49;;;;;;;11.57;2.85;;;;;;;;;;5115592;27;20051;-71
2023/10/05 14:20:16;;;;;;;14.60;2.90;;;;;;;;;;5114999;27;20047;-77
2023/10/05 14:22:44;;;;;;;12.98;2.78;;;;;;;;;;5115259;27;20038;-71
2023/10/05 14:25:17;;;;;;;10.40;2.60;;;;;;;;;;5111042;27;20044;-72
2023/10/05 14:27:48;;;;;;;10.80;2.78;;;;;;;;;;5111957;27;20073;-71
2023/10/05 14:30:17;;;;;;;12.43;2.67;;;;;;;;;;5111703;28;20044;-71
2023/10/05 14:32:44;;;;;;;10.02;2.90;;;;;;;;;;5132223;27;20043;-72
2023/10/05 14:35:10;;;;;;;10.73;3.13;;;;;;;;;;5114901;27;20051;-71
2023/10/05 14:37:42;;;;;;;6.57;2.05;;;;;;;;;;5114297;27;20293;-71
2023/10/05 14:40:26;;;;;;;12.20;2.42;;;;;;;;;;5113767;27;20051;-71
2023/10/05 14:42:55;;;;;;;8.90;2.50;;;;;;;;;;5101732;28;20043;-71
2023/10/05 14:45:21;;;;;;;10.50;2.65;;;;;;;;;;5110970;27;20039;-71
2023/10/05 14:47:49;;;;;;;12.55;2.58;;;;;;;;;;5112394;27;20047;-72
2023/10/05 14:50:17;;;;;;;10.38;2.55;;;;;;;;;;5113127;27;20098;-70
2023/10/05 14:52:48;;;;;;;7.13;2.00;;;;;;;;;;5113096;27;20043;-72
2023/10/05 14:55:15;;;;;;;6.32;2.10;;;;;;;;;;5110645;27;20543;-71
2023/10/05 14:57:41;;;;;;;10.32;2.22;;;;;;;;;;5108526;28;20503;-71
2023/10/05 15:00:10;;;;;;;;;;;;;;;;;;5094702;28;20397;-71
2023/10/05 15:02:37;;;;;;;9.75;2.33;;;;;;;;;;5093934;28;19920;-73
2023/10/05 15:05:03;;;;;;;11.38;2.58;;;;;;;;;;5060793;28;20048;-73
2023/10/05 15:07:30;;;;;;;10.00;2.08;;;;;;;;;;5077068;28;20512;-72
2023/10/05 15:09:57;;;;;;;13.45;2.35;;;;;;;;;;5093022;28;20044;-72
2023/10/05 15:12:23;;;;;;;11.05;2.33;;;;;;;;;;5083589;28;20485;-72
2023/10/05 15:14:49;;;;;;;8.48;2.22;;;;;;;;;;5094370;28;20384;-72
2023/10/05 15:17:16;;;;;;;;;;;;;;;;;;5078083;28;20051;-72
2023/10/05 15:19:42;;;;;;;;;;;;;;;;;;5111052;28;19969;-72
2023/10/05 15:22:09;;;;;;;9.60;2.13;;;;;;;;;;5104747;28;20331;-72
2023/10/05 15:24:35;;;;;;;7.75;2.35;;;;;;;;;;5093088;28;20492;-74